Time;durP1;ratioP1;P1;durP2;ratioP2;P2;SDS_P1;SDS_P2;PMS_P1;PMS_P2;Temp;Humidity;BMP_temperature;BMP_pressure;BME280_temperature;BME280_humidity;BME280_pressure;Samples;Min_cycle;Max_cycle;Signal;HPM_P1;HPM_P2
2022/08/05 00:00:24;;;;;;;8.38;2.67;;;27.90;59.30;;;;;;5037171;28;20226;-79
2022/08/05 00:02:53;;;;;;;4.32;2.47;;;27.90;59.30;;;;;;5039360;28;20191;-79
2022/08/05 00:05:22;;;;;;;5.13;2.72;;;27.90;59.40;;;;;;5035622;28;20187;-78
2022/08/05 00:08:10;;;;;;;3.58;2.40;;;27.80;59.40;;;;;;5042313;28;20217;-78
2022/08/05 00:11:00;;;;;;;4.53;2.38;;;27.80;59.50;;;;;;5039207;28;20195;-78
2022/08/05 00:13:31;;;;;;;3.70;2.72;;;27.80;59.50;;;;;;5050820;28;20589;-78
2022/08/05 00:16:09;;;;;;;2.75;2.40;;;27.80;59.60;;;;;;5040600;28;20195;-79
2022/08/05 00:18:41;;;;;;;5.78;2.58;;;27.70;59.50;;;;;;5042816;28;20828;-78
2022/08/05 00:21:12;;;;;;;7.55;2.40;;;27.70;59.50;;;;;;5038516;28;20213;-79
2022/08/05 00:23:42;;;;;;;9.60;2.50;;;27.70;59.50;;;;;;5039310;28;20607;-78
2022/08/05 00:26:16;;;;;;;4.72;2.40;;;27.70;59.60;;;;;;5037919;28;20202;-79
2022/08/05 00:28:46;;;;;;;6.30;2.42;;;27.70;59.60;;;;;;5038026;28;20253;-78
2022/08/05 00:31:16;;;;;;;3.90;2.63;;;27.60;59.60;;;;;;5033499;28;20202;-80
2022/08/05 00:34:05;;;;;;;3.33;2.30;;;27.60;59.70;;;;;;5046580;28;20203;-77
2022/08/05 00:36:53;;;;;;;6.30;2.60;;;27.70;59.70;;;;;;5037801;28;20614;-78
2022/08/05 00:39:41;;;;;;;3.80;2.25;;;27.60;59.80;;;;;;5047226;28;20730;-79
2022/08/05 00:42:31;;;;;;;7.68;2.90;;;27.60;59.90;;;;;;5042942;28;20209;-78
2022/08/05 00:45:02;;;;;;;3.05;2.35;;;27.60;59.90;;;;;;5046947;28;20233;-78
2022/08/05 00:47:31;;;;;;;5.65;2.47;;;27.50;59.90;;;;;;5035561;28;20278;-79
2022/08/05 00:50:19;;;;;;;5.95;2.72;;;27.50;59.90;;;;;;5042872;28;20203;-79
2022/08/05 00:52:48;;;;;;;6.25;2.80;;;27.50;60.10;;;;;;5040619;28;20246;-79
2022/08/05 00:55:16;;;;;;;4.80;2.72;;;27.50;60.20;;;;;;5044324;28;20206;-79
2022/08/05 00:57:46;;;;;;;5.03;2.85;;;27.50;60.40;;;;;;5040889;28;20289;-79
2022/08/05 01:00:28;;;;;;;5.10;2.80;;;27.40;60.30;;;;;;5041835;28;20301;-79
2022/08/05 01:02:57;;;;;;;3.95;2.47;;;27.40;60.30;;;;;;5039920;28;20198;-79
2022/08/05 01:05:27;;;;;;;4.65;2.92;;;27.40;60.30;;;;;;5044039;28;20191;-79
2022/08/05 01:07:56;;;;;;;4.32;2.92;;;27.30;60.40;;;;;;5032678;28;20199;-77
2022/08/05 01:10:51;;;;;;;4.38;2.80;;;27.30;61.20;;;;;;5035360;28;20199;-80
2022/08/05 01:13:25;;;;;;;3.83;2.72;;;27.30;60.40;;;;;;5043342;28;20186;-78
2022/08/05 01:16:21;;;;;;;7.45;2.55;;;27.30;60.40;;;;;;5041405;28;20913;-80
2022/08/05 01:19:00;;;;;;;5.68;2.60;;;27.20;60.40;;;;;;5053137;28;20190;-79
2022/08/05 01:21:57;;;;;;;4.57;2.92;;;27.20;60.50;;;;;;5037665;28;20222;-79
2022/08/05 01:24:47;;;;;;;4.43;2.97;;;27.20;60.60;;;;;;5046890;28;20230;-79
2022/08/05 01:27:31;;;;;;;6.25;2.90;;;27.10;60.60;;;;;;5044455;28;20195;-79
2022/08/05 01:30:04;;;;;;;4.32;2.42;;;27.10;60.60;;;;;;5047055;28;20801;-79
2022/08/05 01:32:47;;;;;;;5.15;2.72;;;27.10;60.60;;;;;;5037858;28;20253;-79
2022/08/05 01:35:18;;;;;;;5.43;2.67;;;27.10;60.80;;;;;;5043951;28;20195;-79
2022/08/05 01:38:08;;;;;;;6.57;3.78;;;27.00;60.80;;;;;;5044812;28;20643;-79
2022/08/05 01:40:54;;;;;;;5.70;2.90;;;27.00;60.80;;;;;;5053339;28;20202;-79
2022/08/05 01:43:23;;;;;;;5.65;2.78;;;26.90;60.80;;;;;;5033374;28;20205;-79
2022/08/05 01:45:55;;;;;;;7.07;3.28;;;26.90;61.00;;;;;;5051698;28;20198;-78
2022/08/05 01:48:26;;;;;;;6.57;2.88;;;26.90;61.20;;;;;;5054219;28;20276;-79
2022/08/05 01:50:56;;;;;;;5.65;3.20;;;26.80;61.10;;;;;;5035902;28;20187;-79
2022/08/05 01:53:28;;;;;;;5.43;3.65;;;26.80;61.20;;;;;;5050260;28;20190;-80
2022/08/05 01:56:17;;;;;;;4.35;3.35;;;26.70;61.20;;;;;;5039128;28;20657;-78
2022/08/05 01:59:11;;;;;;;4.35;3.20;;;26.70;61.30;;;;;;5044384;28;20203;-78
2022/08/05 02:01:43;;;;;;;8.00;3.30;;;26.70;61.40;;;;;;5045058;28;20221;-78
2022/08/05 02:04:16;;;;;;;6.70;4.07;;;26.60;61.40;;;;;;5042758;28;20214;-78
2022/08/05 02:06:45;;;;;;;5.35;3.22;;;26.60;61.60;;;;;;5040729;28;20914;-78
2022/08/05 02:09:15;;;;;;;5.85;3.25;;;26.60;61.60;;;;;;5048412;28;20636;-78
2022/08/05 02:11:53;;;;;;;6.78;3.50;;;26.50;61.80;;;;;;5042462;28;20195;-78
2022/08/05 02:14:28;;;;;;;8.43;3.40;;;26.50;61.90;;;;;;5052474;28;20193;-79
2022/08/05 02:17:07;;;;;;;5.45;3.50;;;26.40;61.90;;;;;;5050788;28;20268;-78
2022/08/05 02:20:00;;;;;;;6.60;3.30;;;26.40;62.30;;;;;;5054648;28;20191;-78
2022/08/05 02:22:33;;;;;;;4.97;3.20;;;26.40;62.50;;;;;;5043313;28;20199;-79
2022/08/05 02:25:05;;;;;;;8.43;3.70;;;26.30;62.70;;;;;;5049217;28;20206;-78
2022/08/05 02:27:38;;;;;;;7.95;3.42;;;26.30;62.80;;;;;;5043985;28;20847;-78
2022/08/05 02:30:35;;;;;;;5.28;3.40;;;26.20;62.90;;;;;;5048106;28;20576;-77
2022/08/05 02:33:07;;;;;;;6.90;3.60;;;26.10;63.00;;;;;;5043522;28;20280;-78
2022/08/05 02:35:40;;;;;;;7.78;3.90;;;26.10;63.20;;;;;;5051099;28;20194;-77
2022/08/05 02:38:28;;;;;;;5.85;3.42;;;26.10;63.30;;;;;;5042985;28;20187;-78
2022/08/05 02:41:03;;;;;;;4.72;3.40;;;26.00;63.60;;;;;;5042238;28;21642;-77
2022/08/05 02:43:46;;;;;;;5.72;3.70;;;26.00;63.70;;;;;;5040115;28;20261;-78
2022/08/05 02:46:34;;;;;;;6.50;4.03;;;25.90;63.80;;;;;;5048861;28;20852;-79
2022/08/05 02:49:05;;;;;;;6.25;3.80;;;25.90;64.00;;;;;;5042967;28;20198;-79
2022/08/05 02:51:38;;;;;;;10.32;3.95;;;25.80;64.30;;;;;;5037841;28;20187;-78
2022/08/05 02:54:27;;;;;;;8.57;3.95;;;25.70;64.20;;;;;;5042972;28;20259;-78
2022/08/05 02:57:06;;;;;;;6.10;3.78;;;25.80;64.30;;;;;;5043465;28;20552;-79
2022/08/05 02:59:56;;;;;;;4.43;3.10;;;25.70;64.40;;;;;;5045627;28;20618;-79
2022/08/05 03:02:31;;;;;;;8.68;3.92;;;25.60;64.40;;;;;;5040158;28;20798;-79
2022/08/05 03:05:02;;;;;;;5.85;3.53;;;25.60;64.70;;;;;;5040962;28;21241;-78
2022/08/05 03:07:31;;;;;;;6.78;3.40;;;25.60;64.80;;;;;;5046189;28;20285;-79
2022/08/05 03:10:21;;;;;;;8.10;4.95;;;25.50;64.80;;;;;;5038701;28;20712;-78
2022/08/05 03:12:53;;;;;;;6.82;3.75;;;25.50;65.00;;;;;;5039364;28;20187;-77
2022/08/05 03:15:22;;;;;;;7.38;3.65;;;25.50;65.00;;;;;;5046122;28;20191;-79
2022/08/05 03:17:53;;;;;;;11.48;4.70;;;25.40;65.10;;;;;;5041108;28;20199;-78
2022/08/05 03:20:25;;;;;;;7.07;3.67;;;25.40;65.20;;;;;;5048286;28;20206;-79
2022/08/05 03:22:56;;;;;;;7.72;3.47;;;25.40;65.30;;;;;;5041564;28;20607;-78
2022/08/05 03:25:26;;;;;;;6.63;3.80;;;25.40;65.50;;;;;;5034835;28;20249;-79
2022/08/05 03:28:15;;;;;;;7.80;3.63;;;25.30;65.50;;;;;;5035864;28;20198;-78
2022/08/05 03:30:48;;;;;;;8.68;3.65;;;25.30;65.60;;;;;;5046351;28;20190;-78
2022/08/05 03:33:18;;;;;;;9.40;3.58;;;25.30;65.80;;;;;;5038665;28;20336;-78
2022/08/05 03:35:49;;;;;;;8.15;3.50;;;25.30;65.90;;;;;;5034571;28;20660;-78
2022/08/05 03:38:21;;;;;;;5.53;3.42;;;25.20;65.90;;;;;;5041070;28;20199;-79
2022/08/05 03:40:46;;;;;;;8.27;3.08;;;25.20;66.20;;;;;;5041139;28;20265;-79
2022/08/05 03:43:17;;;;;;;7.20;3.30;;;25.20;66.20;;;;;;5046588;28;20203;-78
2022/08/05 03:46:08;;;;;;;6.32;3.50;;;25.20;66.30;;;;;;5039165;28;20202;-79
2022/08/05 03:48:37;;;;;;;8.80;3.92;;;25.20;66.40;;;;;;5036135;28;20195;-78
2022/08/05 03:51:13;;;;;;;6.90;3.72;;;25.20;66.60;;;;;;5031395;28;20195;-78
2022/08/05 03:54:08;;;;;;;6.95;4.10;;;25.20;67.40;;;;;;5037236;28;20198;-79
2022/08/05 03:56:58;;;;;;;7.70;3.92;;;25.10;66.60;;;;;;5033364;28;20199;-79
2022/08/05 03:59:32;;;;;;;6.75;4.00;;;25.20;66.70;;;;;;5038546;28;20203;-78
2022/08/05 04:02:23;;;;;;;13.70;4.97;;;25.20;66.80;;;;;;5038091;28;20229;-78
2022/08/05 04:05:09;;;;;;;9.95;5.03;;;25.10;66.70;;;;;;5051738;28;20250;-79
2022/08/05 04:07:40;;;;;;;8.93;4.72;;;25.20;66.80;;;;;;5045641;28;20190;-78
2022/08/05 04:10:27;;;;;;;9.63;4.53;;;25.20;66.80;;;;;;5040312;28;20199;-78
2022/08/05 04:13:05;;;;;;;11.52;4.63;;;25.20;66.70;;;;;;5035176;28;20199;-79
2022/08/05 04:15:33;;;;;;;7.38;4.05;;;25.20;66.80;;;;;;4997946;28;20199;-78
2022/08/05 04:18:04;;;;;;;8.80;4.72;;;25.20;66.90;;;;;;5041972;28;20206;-78
2022/08/05 04:20:34;;;;;;;10.20;4.32;;;25.20;66.90;;;;;;5036437;28;20212;-79
2022/08/05 04:23:04;;;;;;;16.08;4.28;;;25.30;67.10;;;;;;5054854;28;20227;-79
2022/08/05 04:25:39;;;;;;;7.70;3.65;;;25.20;66.90;;;;;;5043608;28;20201;-79
2022/08/05 04:28:27;;;;;;;5.57;3.60;;;25.20;66.90;;;;;;5041398;28;20199;-79
2022/08/05 04:31:00;;;;;;;8.43;4.45;;;25.20;66.90;;;;;;5038948;28;20191;-77
2022/08/05 04:33:31;;;;;;;9.20;3.67;;;25.30;67.00;;;;;;5043961;28;20191;-78
2022/08/05 04:36:19;;;;;;;9.05;3.72;;;25.30;66.90;;;;;;5040397;28;20832;-78
2022/08/05 04:39:09;;;;;;;9.18;3.67;;;25.30;67.00;;;;;;5037972;28;20226;-79
2022/08/05 04:41:40;;;;;;;6.82;3.92;;;25.40;66.90;;;;;;5047158;28;20207;-79
2022/08/05 04:44:08;;;;;;;7.07;3.78;;;25.40;66.90;;;;;;5043931;28;20278;-78
2022/08/05 04:46:37;;;;;;;10.82;3.83;;;25.40;66.90;;;;;;5038312;28;20691;-79
2022/08/05 04:49:06;;;;;;;10.82;3.33;;;25.40;66.90;;;;;;5049435;28;20202;-79
2022/08/05 04:51:42;;;;;;;9.13;4.00;;;25.40;66.90;;;;;;5046080;28;20902;-79
2022/08/05 04:54:13;;;;;;;9.20;4.07;;;25.50;66.90;;;;;;5053296;28;20194;-79
2022/08/05 04:56:42;;;;;;;8.57;4.00;;;25.50;66.90;;;;;;5043428;28;20607;-79
2022/08/05 04:59:11;;;;;;;7.68;3.60;;;25.60;66.90;;;;;;5051724;28;20285;-78
2022/08/05 05:01:50;;;;;;;6.90;3.75;;;25.60;66.90;;;;;;5052686;28;20213;-79
2022/08/05 05:04:38;;;;;;;6.15;3.47;;;25.70;66.90;;;;;;5049108;28;20210;-77
2022/08/05 05:07:15;;;;;;;9.55;3.47;;;25.70;66.90;;;;;;5043193;28;20190;-78
2022/08/05 05:09:46;;;;;;;7.68;3.70;;;25.70;66.90;;;;;;5041244;28;20278;-77
2022/08/05 05:12:14;;;;;;;10.55;4.00;;;25.80;66.90;;;;;;5039765;28;20191;-78
2022/08/05 05:14:42;;;;;;;6.35;3.55;;;25.80;67.00;;;;;;5045348;28;20471;-77
2022/08/05 05:17:18;;;;;;;9.55;3.17;;;25.80;67.00;;;;;;5052224;28;20198;-77
2022/08/05 05:19:54;;;;;;;10.85;3.30;;;25.90;67.00;;;;;;5046180;28;20230;-78
2022/08/05 05:22:23;;;;;;;6.93;3.08;;;25.90;67.00;;;;;;5041855;28;20210;-78
2022/08/05 05:24:55;;;;;;;5.40;2.78;;;26.00;66.90;;;;;;5045598;28;20912;-79
2022/08/05 05:27:27;;;;;;;5.93;3.08;;;26.10;67.00;;;;;;5047076;28;20257;-77
2022/08/05 05:30:14;;;;;;;5.35;3.20;;;26.10;66.70;;;;;;5034900;28;20192;-80
2022/08/05 05:33:01;;;;;;;5.22;2.70;;;26.10;66.50;;;;;;5044718;28;20191;-80
2022/08/05 05:35:43;;;;;;;3.92;2.60;;;26.20;66.40;;;;;;5050524;28;20186;-78
2022/08/05 05:38:12;;;;;;;8.18;2.67;;;26.30;66.30;;;;;;5056962;28;20191;-78
2022/08/05 05:40:43;;;;;;;6.70;2.80;;;26.30;66.10;;;;;;5047377;28;20322;-78
2022/08/05 05:43:19;;;;;;;6.40;2.70;;;26.40;66.10;;;;;;5037987;28;20207;-78
2022/08/05 05:46:08;;;;;;;4.65;2.60;;;26.50;66.00;;;;;;5041143;28;20553;-79
2022/08/05 05:48:43;;;;;;;6.97;2.70;;;26.60;65.90;;;;;;5051378;28;20191;-77
2022/08/05 05:51:19;;;;;;;8.75;2.50;;;26.70;65.70;;;;;;5042212;28;20209;-77
2022/08/05 05:53:47;;;;;;;3.90;2.53;;;26.70;65.30;;;;;;5045730;28;20213;-77
2022/08/05 05:56:28;;;;;;;8.50;2.53;;;26.80;65.30;;;;;;5042468;28;20296;-78
2022/08/05 05:59:02;;;;;;;3.63;2.58;;;26.90;65.30;;;;;;5044096;28;20285;-77
2022/08/05 06:01:32;;;;;;;7.43;3.10;;;27.00;65.10;;;;;;5057117;28;20214;-77
2022/08/05 06:04:07;;;;;;;12.07;3.08;;;27.10;65.00;;;;;;5046947;28;20194;-77
2022/08/05 06:10:49;;;;;;;4.55;2.58;;;27.20;64.80;;;;;;5040553;28;20233;-80
2022/08/05 06:18:06;;;;;;;3.58;2.40;;;27.50;64.20;;;;;;5039390;28;20913;-79
2022/08/05 06:20:34;;;;;;;5.32;2.85;;;27.60;64.30;;;;;;5036923;28;20196;-78
2022/08/05 06:23:03;;;;;;;3.45;2.28;;;27.70;64.10;;;;;;5042019;28;20219;-78
2022/08/05 06:25:31;;;;;;;5.93;2.85;;;27.70;64.60;;;;;;5048472;28;20191;-76
2022/08/05 06:28:20;;;;;;;6.43;2.25;;;27.80;63.50;;;;;;4998303;28;20210;-77
2022/08/05 06:30:50;;;;;;;5.10;3.05;;;27.90;63.40;;;;;;5036242;28;20206;-76
2022/08/05 06:33:20;;;;;;;5.82;2.90;;;28.00;63.40;;;;;;5038337;28;20195;-76
2022/08/05 06:36:09;;;;;;;4.57;3.00;;;28.00;63.10;;;;;;5050207;28;20198;-77
2022/08/05 06:38:37;;;;;;;6.75;3.10;;;28.10;62.90;;;;;;5040186;28;20199;-76
2022/08/05 06:41:14;;;;;;;7.72;3.13;;;28.20;62.70;;;;;;5042171;28;20825;-76
2022/08/05 06:43:42;;;;;;;4.30;2.63;;;28.30;62.70;;;;;;5039541;28;20219;-76
2022/08/05 06:46:27;;;;;;;4.63;2.65;;;28.40;62.70;;;;;;5039946;28;20194;-75
2022/08/05 06:48:59;;;;;;;3.95;2.65;;;28.50;62.70;;;;;;5045898;28;20642;-76
2022/08/05 06:51:29;;;;;;;4.50;2.80;;;28.60;62.50;;;;;;5050383;28;20198;-75
2022/08/05 06:54:00;;;;;;;4.70;2.72;;;28.60;62.20;;;;;;5045666;28;20201;-76
2022/08/05 06:56:30;;;;;;;7.78;2.80;;;28.70;61.90;;;;;;5040659;28;20191;-75
2022/08/05 06:59:03;;;;;;;6.10;3.17;;;28.80;61.80;;;;;;5046965;28;20642;-76
2022/08/05 07:01:37;;;;;;;5.00;2.60;;;28.90;61.60;;;;;;5041509;28;20191;-76
2022/08/05 07:04:10;;;;;;;11.45;2.97;;;28.90;61.40;;;;;;5037379;28;20214;-75
2022/08/05 07:06:41;;;;;;;6.50;2.97;;;29.00;61.30;;;;;;5046331;28;20187;-76
2022/08/05 07:09:09;;;;;;;5.30;2.47;;;29.10;61.20;;;;;;5056548;28;20831;-76
2022/08/05 07:11:38;;;;;;;3.50;2.20;;;29.10;60.80;;;;;;5044388;28;20194;-75
2022/08/05 07:17:01;;;;;;;3.90;2.90;;;29.20;60.70;;;;;;5051144;28;20236;-76
2022/08/05 07:19:53;;;;;;;3.78;2.55;;;29.30;60.60;;;;;;5055647;28;20210;-76
2022/08/05 07:22:41;;;;;;;7.55;2.72;;;29.40;60.20;;;;;;5042289;28;20297;-76
2022/08/05 07:25:10;;;;;;;7.65;2.97;;;29.50;60.10;;;;;;5042343;28;20560;-76
2022/08/05 07:27:59;;;;;;;5.80;2.30;;;29.50;60.00;;;;;;5038223;28;20243;-76
2022/08/05 07:30:38;;;;;;;6.45;2.78;;;29.60;59.90;;;;;;5052680;28;20896;-78
2022/08/05 07:33:09;;;;;;;3.60;2.53;;;29.60;59.70;;;;;;5064505;28;20252;-78
2022/08/05 07:35:46;;;;;;;4.18;2.60;;;29.70;59.60;;;;;;5041845;28;20191;-76
2022/08/05 07:38:34;;;;;;;4.90;2.35;;;29.80;59.50;;;;;;5047028;28;20244;-77
2022/08/05 07:41:15;;;;;;;4.15;2.83;;;29.80;59.50;;;;;;5056328;28;20190;-79
2022/08/05 07:44:06;;;;;;;4.18;2.47;;;29.80;58.30;;;;;;5054844;28;20245;-80
2022/08/05 07:46:46;;;;;;;4.28;2.67;;;29.90;58.10;;;;;;5043443;28;20191;-76
2022/08/05 07:49:16;;;;;;;3.00;2.20;;;30.00;58.10;;;;;;5054224;28;20653;-77
2022/08/05 07:51:47;;;;;;;3.38;2.22;;;30.00;57.60;;;;;;5052483;28;20198;-78
2022/08/05 07:54:25;;;;;;;3.90;2.60;;;30.00;57.40;;;;;;5041951;28;21351;-77
2022/08/05 07:57:00;;;;;;;3.05;2.25;;;30.10;57.50;;;;;;5041129;28;20203;-76
2022/08/05 07:59:49;;;;;;;3.40;2.20;;;30.10;57.40;;;;;;5052710;28;20191;-76
2022/08/05 08:02:18;;;;;;;4.82;2.65;;;30.20;57.40;;;;;;5033485;28;20254;-75
2022/08/05 08:04:54;;;;;;;3.13;2.15;;;30.20;57.20;;;;;;5041359;28;20222;-77
2022/08/05 08:07:24;;;;;;;6.68;2.33;;;30.30;57.30;;;;;;5051690;28;20186;-76
2022/08/05 08:10:02;;;;;;;2.90;2.20;;;30.30;56.80;;;;;;5046930;28;20878;-77
2022/08/05 08:12:31;;;;;;;4.38;3.00;;;30.30;56.60;;;;;;5037350;28;20269;-77
2022/08/05 08:15:17;;;;;;;3.65;2.13;;;30.40;56.40;;;;;;5039676;28;20195;-80
2022/08/05 08:18:05;;;;;;;3.15;1.90;;;30.40;56.30;;;;;;5055655;28;20207;-76
2022/08/05 08:20:41;;;;;;;3.50;2.17;;;30.50;55.60;;;;;;5049282;28;20742;-76
2022/08/05 08:23:31;;;;;;;3.38;2.30;;;30.50;55.10;;;;;;5049311;28;20731;-75
2022/08/05 08:26:20;;;;;;;2.92;2.10;;;30.50;55.20;;;;;;5040066;28;20728;-80
2022/08/05 08:28:58;;;;;;;3.30;2.35;;;30.60;55.30;;;;;;5038092;28;20195;-75
2022/08/05 08:31:46;;;;;;;2.95;2.17;;;30.60;55.30;;;;;;5047845;28;20241;-76
2022/08/05 08:34:15;;;;;;;2.83;2.05;;;30.70;55.50;;;;;;5040324;28;20653;-75
2022/08/05 08:36:46;;;;;;;3.13;2.17;;;30.70;55.50;;;;;;5041255;28;20264;-78
2022/08/05 08:39:25;;;;;;;5.27;2.20;;;30.80;54.80;;;;;;5042632;28;20445;-77
2022/08/05 08:41:56;;;;;;;3.03;2.00;;;30.90;53.60;;;;;;5036630;28;20281;-76
2022/08/05 08:44:30;;;;;;;4.00;2.20;;;30.90;53.80;;;;;;5050267;28;20844;-76
2022/08/05 08:51:04;;;;;;;3.20;2.40;;;31.00;53.40;;;;;;5034254;28;20201;-79
2022/08/05 08:53:53;;;;;;;4.30;2.30;;;31.00;53.60;;;;;;5047156;28;20247;-78
2022/08/05 08:56:23;;;;;;;3.78;2.00;;;31.10;53.30;;;;;;5054192;28;20653;-78
2022/08/05 08:58:58;;;;;;;3.22;2.05;;;31.10;53.00;;;;;;5048408;28;20211;-78
2022/08/05 09:01:28;;;;;;;4.40;2.20;;;31.10;53.00;;;;;;5055935;28;20195;-77
2022/08/05 09:03:57;;;;;;;2.95;2.17;;;31.20;52.70;;;;;;5036490;28;20233;-78
2022/08/05 09:06:27;;;;;;;3.55;2.00;;;31.20;52.40;;;;;;5038834;28;20196;-77
2022/08/05 09:08:58;;;;;;;3.33;2.00;;;31.20;53.20;;;;;;5039400;28;20282;-77
2022/08/05 09:11:28;;;;;;;5.13;2.22;;;31.30;52.30;;;;;;5051489;28;20793;-75
2022/08/05 09:14:17;;;;;;;4.35;2.20;;;31.40;52.40;;;;;;5051921;28;20859;-78
2022/08/05 09:17:07;;;;;;;4.30;2.17;;;31.40;52.10;;;;;;5052024;28;20282;-77
2022/08/05 09:19:55;;;;;;;4.53;2.38;;;31.50;52.40;;;;;;5044568;28;20207;-78
2022/08/05 09:23:09;;;;;;;4.00;1.85;;;31.60;52.30;;;;;;5035763;28;20195;-77
2022/08/05 09:25:49;;;;;;;3.17;2.30;;;31.70;52.20;;;;;;5049098;28;20195;-76
2022/08/05 09:28:33;;;;;;;3.25;2.30;;;31.70;51.40;;;;;;5035957;28;20202;-79
2022/08/05 09:31:04;;;;;;;3.33;2.55;;;31.80;51.00;;;;;;5052143;28;20195;-78
2022/08/05 09:33:55;;;;;;;3.70;2.38;;;31.80;51.20;;;;;;5043940;28;20265;-75
2022/08/05 09:36:25;;;;;;;3.72;1.85;;;31.80;50.30;;;;;;5047461;28;20195;-78
2022/08/05 09:39:04;;;;;;;3.13;2.22;;;31.90;50.30;;;;;;5028808;28;20218;-77
2022/08/05 09:41:56;;;;;;;3.38;2.47;;;32.00;50.70;;;;;;5053408;28;20195;-76
2022/08/05 09:44:45;;;;;;;3.30;2.00;;;32.00;50.70;;;;;;5047768;28;20207;-75
2022/08/05 09:47:19;;;;;;;6.00;1.80;;;32.10;50.60;;;;;;5047841;28;20637;-77
2022/08/05 09:49:51;;;;;;;3.97;2.00;;;32.20;50.00;;;;;;5062574;28;20198;-78
2022/08/05 09:52:32;;;;;;;3.85;2.33;;;32.20;50.10;;;;;;5054388;28;20587;-78
2022/08/05 09:55:03;;;;;;;2.80;1.92;;;32.20;49.40;;;;;;5052650;28;20244;-77
2022/08/05 09:57:37;;;;;;;4.13;1.95;;;32.30;49.60;;;;;;5058249;28;20945;-78
2022/08/05 10:00:11;;;;;;;4.57;2.35;;;32.40;49.70;;;;;;5056392;28;20191;-77
2022/08/05 10:02:42;;;;;;;2.00;1.70;;;32.50;49.40;;;;;;5049085;28;20193;-79
2022/08/05 10:05:13;;;;;;;4.78;2.13;;;32.60;49.50;;;;;;5046484;28;20301;-78
2022/08/05 10:07:47;;;;;;;3.67;2.10;;;32.60;49.30;;;;;;5046350;28;20202;-77
2022/08/05 10:10:39;;;;;;;5.85;2.15;;;32.70;49.50;;;;;;5055129;28;20202;-77
2022/08/05 10:13:08;;;;;;;4.72;2.00;;;32.80;49.60;;;;;;5051418;28;20191;-77
2022/08/05 10:15:39;;;;;;;7.35;2.53;;;32.90;49.50;;;;;;5043870;28;20195;-78
2022/08/05 10:18:13;;;;;;;3.58;2.13;;;32.90;49.00;;;;;;5039788;28;20215;-77
2022/08/05 10:20:46;;;;;;;3.90;2.05;;;32.80;48.80;;;;;;5032076;28;20601;-77
2022/08/05 10:23:18;;;;;;;3.05;2.05;;;32.80;48.90;;;;;;5043870;28;20191;-75
2022/08/05 10:26:08;;;;;;;6.50;2.10;;;32.80;48.60;;;;;;5055835;28;20332;-77
2022/08/05 10:28:42;;;;;;;4.00;2.05;;;32.90;48.60;;;;;;5043757;28;20876;-75
2022/08/05 10:31:15;;;;;;;3.10;2.03;;;32.90;48.50;;;;;;5055721;28;20198;-77
2022/08/05 10:34:05;;;;;;;4.13;2.10;;;32.90;47.90;;;;;;5035407;28;20649;-76
2022/08/05 10:36:37;;;;;;;9.73;2.55;;;33.00;47.80;;;;;;5051498;28;20738;-76
2022/08/05 10:39:08;;;;;;;3.15;1.92;;;33.10;47.80;;;;;;5049126;28;20227;-77
2022/08/05 10:41:59;;;;;;;2.33;1.95;;;33.20;48.00;;;;;;5043222;28;20707;-76
2022/08/05 10:44:31;;;;;;;5.03;2.15;;;33.20;47.70;;;;;;5037114;28;20914;-77
2022/08/05 10:47:11;;;;;;;4.50;2.05;;;33.20;47.70;;;;;;5039679;28;20194;-76
2022/08/05 10:50:06;;;;;;;6.25;2.25;;;33.20;48.00;;;;;;5042825;28;20198;-77
2022/08/05 10:52:56;;;;;;;2.67;2.00;;;33.20;48.10;;;;;;5032341;28;20249;-77
2022/08/05 10:55:27;;;;;;;2.92;1.90;;;33.10;47.90;;;;;;5044659;28;20183;-76
2022/08/05 10:58:10;;;;;;;2.90;2.30;;;33.20;48.00;;;;;;5042034;28;20270;-78
2022/08/05 11:00:47;;;;;;;3.97;2.40;;;33.30;48.10;;;;;;5048732;28;20196;-74
2022/08/05 11:03:24;;;;;;;4.25;2.08;;;33.30;47.90;;;;;;5047748;28;20282;-76
2022/08/05 11:06:08;;;;;;;2.58;1.83;;;33.40;47.10;;;;;;5057352;28;20202;-77
2022/08/05 11:09:20;;;;;;;2.42;1.77;;;33.50;47.30;;;;;;5038430;28;20202;-77
2022/08/05 11:12:44;;;;;;;5.30;2.38;;;33.60;47.50;;;;;;5049919;28;20222;-78
2022/08/05 11:15:26;;;;;;;3.03;1.90;;;33.60;47.30;;;;;;5052844;28;20209;-76
2022/08/05 11:18:27;;;;;;;3.15;2.13;;;33.60;48.00;;;;;;5045081;28;20244;-77
2022/08/05 11:20:57;;;;;;;4.93;2.47;;;33.50;46.90;;;;;;5040383;28;20683;-76
2022/08/05 11:23:30;;;;;;;6.45;2.47;;;33.50;47.00;;;;;;5051402;28;20206;-76
2022/08/05 11:26:23;;;;;;;4.70;1.92;;;33.50;46.80;;;;;;5054250;28;20629;-76
2022/08/05 11:29:01;;;;;;;2.03;1.75;;;33.60;47.10;;;;;;5046645;28;20252;-77
2022/08/05 11:32:13;;;;;;;4.25;2.05;;;33.60;46.80;;;;;;5044394;28;20244;-76
2022/08/05 11:34:43;;;;;;;4.05;2.22;;;33.70;46.90;;;;;;5039924;28;20203;-76
2022/08/05 11:38:07;;;;;;;3.10;2.08;;;33.80;46.90;;;;;;5036488;28;20199;-78
2022/08/05 11:41:01;;;;;;;5.32;2.42;;;33.90;46.60;;;;;;5018950;28;20191;-77
2022/08/05 11:43:57;;;;;;;3.28;2.05;;;34.00;46.60;;;;;;5039356;28;20195;-78
2022/08/05 11:46:37;;;;;;;5.65;2.05;;;34.10;46.80;;;;;;5037619;28;20266;-77
2022/08/05 11:49:25;;;;;;;4.30;2.55;;;34.10;46.50;;;;;;5061771;28;20804;-76
2022/08/05 11:51:56;;;;;;;3.08;1.95;;;34.30;46.80;;;;;;5056498;28;20855;-76
2022/08/05 11:54:27;;;;;;;5.63;2.28;;;34.30;46.30;;;;;;5036819;28;20222;-76
2022/08/05 11:57:03;;;;;;;2.85;2.15;;;34.30;46.40;;;;;;5038511;28;20207;-77
2022/08/05 11:59:51;;;;;;;3.90;2.30;;;34.30;45.90;;;;;;5038860;28;20199;-77
2022/08/05 12:02:26;;;;;;;4.05;2.28;;;34.40;46.20;;;;;;5031341;28;20200;-78
2022/08/05 12:05:00;;;;;;;2.28;1.77;;;34.40;46.20;;;;;;5035797;28;20211;-76
2022/08/05 12:07:37;;;;;;;3.38;2.00;;;34.50;46.20;;;;;;5037915;28;20730;-79
2022/08/05 12:10:27;;;;;;;3.45;2.22;;;34.50;46.20;;;;;;5038667;28;20206;-75
2022/08/05 12:13:13;;;;;;;4.32;2.00;;;34.50;46.00;;;;;;5035007;28;20232;-77
2022/08/05 12:15:46;;;;;;;2.80;2.15;;;34.60;46.00;;;;;;5040463;28;20549;-78
2022/08/05 12:18:27;;;;;;;8.48;2.20;;;34.50;45.60;;;;;;5041868;28;20191;-77
2022/08/05 12:21:10;;;;;;;3.38;2.30;;;34.60;45.50;;;;;;5040370;28;20194;-78
2022/08/05 12:23:46;;;;;;;2.63;2.22;;;34.60;45.20;;;;;;5042186;28;20191;-77
2022/08/05 12:26:16;;;;;;;5.28;2.20;;;34.60;45.30;;;;;;5043785;28;20215;-80
2022/08/05 12:28:45;;;;;;;3.08;2.10;;;34.60;45.50;;;;;;5044585;28;20657;-77
2022/08/05 12:31:16;;;;;;;4.47;2.55;;;34.60;45.50;;;;;;5051817;28;20183;-78
2022/08/05 12:34:00;;;;;;;3.72;2.25;;;34.50;44.70;;;;;;5053568;28;20234;-78
2022/08/05 12:36:30;;;;;;;3.75;2.22;;;34.40;45.00;;;;;;5043461;28;20207;-78
2022/08/05 12:39:01;;;;;;;4.25;2.22;;;34.40;45.30;;;;;;5040143;28;20230;-78
2022/08/05 12:41:35;;;;;;;3.10;1.85;;;34.40;45.50;;;;;;5043466;28;20294;-78
2022/08/05 12:44:12;;;;;;;3.90;2.20;;;34.50;45.10;;;;;;5044760;28;20187;-77
2022/08/05 12:47:01;;;;;;;3.15;2.05;;;34.50;45.10;;;;;;5044902;28;20310;-75
2022/08/05 12:49:41;;;;;;;3.25;2.03;;;34.60;44.70;;;;;;5044929;28;20199;-78
2022/08/05 12:52:29;;;;;;;5.93;2.03;;;34.60;45.00;;;;;;5047540;28;20624;-78
2022/08/05 12:55:19;;;;;;;2.38;1.88;;;34.60;44.70;;;;;;5042827;28;20277;-76
2022/08/05 12:57:51;;;;;;;2.72;2.05;;;34.60;44.90;;;;;;5050781;28;20197;-77
2022/08/05 13:00:43;;;;;;;4.22;2.10;;;34.60;44.90;;;;;;5040714;28;20195;-79
2022/08/05 13:03:34;;;;;;;5.97;2.25;;;34.70;45.00;;;;;;5047235;28;20195;-77
2022/08/05 13:06:13;;;;;;;3.83;1.90;;;34.70;45.00;;;;;;5044713;28;20237;-78
2022/08/05 13:08:45;;;;;;;3.78;2.00;;;34.80;44.80;;;;;;5053097;28;20183;-78
2022/08/05 13:11:22;;;;;;;2.95;2.00;;;34.80;44.90;;;;;;5047974;28;20195;-77
2022/08/05 13:14:22;;;;;;;2.65;2.03;;;34.90;44.90;;;;;;5056036;28;20259;-77
2022/08/05 13:17:09;;;;;;;3.67;2.33;;;35.00;44.70;;;;;;5052244;28;20218;-76
2022/08/05 13:19:38;;;;;;;3.63;2.10;;;35.00;44.60;;;;;;5044308;28;20586;-78
2022/08/05 13:22:22;;;;;;;3.05;2.20;;;35.10;44.70;;;;;;5053590;28;20625;-80
2022/08/05 13:24:58;;;;;;;3.70;1.65;;;35.20;44.70;;;;;;5053024;28;20649;-75
2022/08/05 13:27:35;;;;;;;2.35;1.83;;;35.20;44.40;;;;;;5045566;28;20206;-78
2022/08/05 13:30:08;;;;;;;3.30;2.10;;;35.30;44.40;;;;;;5048228;28;20189;-76
2022/08/05 13:32:56;;;;;;;4.20;2.10;;;35.30;44.40;;;;;;5053870;28;20202;-76
2022/08/05 13:35:29;;;;;;;3.45;1.98;;;35.30;44.60;;;;;;5046519;28;20280;-75
2022/08/05 13:38:17;;;;;;;3.80;2.05;;;35.30;44.60;;;;;;5044250;28;20191;-75
2022/08/05 13:41:03;;;;;;;4.70;2.03;;;35.40;44.40;;;;;;5045302;28;20194;-78
2022/08/05 13:43:34;;;;;;;2.47;2.03;;;35.40;44.30;;;;;;5045149;28;20191;-77
2022/08/05 13:46:14;;;;;;;2.42;1.98;;;35.40;44.20;;;;;;5040158;28;20207;-76
2022/08/05 13:48:57;;;;;;;3.35;2.03;;;35.50;44.40;;;;;;5042103;28;20544;-76
2022/08/05 13:51:35;;;;;;;3.80;2.13;;;35.50;44.20;;;;;;5044240;28;20820;-76
2022/08/05 13:54:08;;;;;;;3.95;2.58;;;35.50;44.10;;;;;;5046821;28;20202;-78
2022/08/05 13:56:40;;;;;;;2.92;2.42;;;35.50;44.20;;;;;;5056130;28;20187;-76